createdAt,value
2022-10-11T00:05:15.300Z,13.36
2022-10-11T00:15:21.265Z,13.32
2022-10-11T00:25:23.558Z,13.26
2022-10-11T00:35:26.552Z,13.19
2022-10-11T00:45:32.109Z,13.09
2022-10-11T00:55:40.854Z,12.97
2022-10-11T01:05:44.176Z,12.87
2022-10-11T01:15:56.998Z,12.79
2022-10-11T01:26:13.841Z,12.78
2022-10-11T01:36:28.107Z,12.80
2022-10-11T01:46:31.504Z,12.80
2022-10-11T01:57:06.383Z,12.83
2022-10-11T02:07:22.115Z,12.85
2022-10-11T02:17:31.462Z,12.89
2022-10-11T02:27:37.691Z,12.92
2022-10-11T02:37:51.923Z,12.91
2022-10-11T02:47:54.789Z,12.90
2022-10-11T02:57:57.361Z,12.89
2022-10-11T03:07:59.732Z,12.87
2022-10-11T03:18:02.105Z,12.87
2022-10-11T03:28:05.162Z,12.83
2022-10-11T03:38:12.265Z,12.79
2022-10-11T03:48:15.322Z,12.74
2022-10-11T03:58:17.654Z,12.73
2022-10-11T04:08:20.046Z,12.64
2022-10-11T04:18:22.497Z,12.61
2022-10-11T04:28:25.400Z,12.50
2022-10-11T04:38:27.875Z,12.34
2022-10-11T04:48:30.507Z,12.19
2022-10-11T04:58:35.426Z,12.10
2022-10-11T05:08:39.370Z,12.09
2022-10-11T05:18:41.994Z,12.10
2022-10-11T05:28:44.728Z,12.17
2022-10-11T05:38:47.966Z,12.29
2022-10-11T05:48:50.533Z,12.36
2022-10-11T05:58:53.966Z,12.45
2022-10-11T06:08:58.499Z,12.51
2022-10-11T06:19:01.323Z,12.50
2022-10-11T06:29:04.983Z,12.41
2022-10-11T06:39:08.066Z,12.43
2022-10-11T06:49:11.560Z,12.52
2022-10-11T06:59:15.344Z,12.66
2022-10-11T07:09:17.981Z,12.78
2022-10-11T07:19:20.982Z,12.85
2022-10-11T07:29:23.688Z,12.98
2022-10-11T07:39:27.503Z,13.23
2022-10-11T07:49:30.377Z,13.60
2022-10-11T07:59:34.073Z,13.93
2022-10-11T08:09:36.800Z,14.19
2022-10-11T08:19:39.523Z,14.32
2022-10-11T08:29:42.391Z,14.38
2022-10-11T08:39:45.315Z,14.41
2022-10-11T08:49:48.821Z,14.51
2022-10-11T09:00:07.131Z,14.53
2022-10-11T09:10:41.196Z,14.89
2022-10-11T09:21:05.531Z,15.11
2022-10-11T09:31:11.224Z,15.21
2022-10-11T09:41:43.929Z,15.25
2022-10-11T09:51:59.566Z,15.25
2022-10-11T10:02:14.928Z,15.65
2022-10-11T10:12:28.574Z,15.83
2022-10-11T10:22:38.855Z,15.89
2022-10-11T10:33:05.119Z,16.29
2022-10-11T10:43:16.269Z,16.34
2022-10-11T10:53:36.590Z,16.66
2022-10-11T11:03:59.901Z,16.60
2022-10-11T11:14:47.644Z,16.52
2022-10-11T11:25:08.428Z,16.75
2022-10-11T11:35:34.083Z,17.19
2022-10-11T11:46:02.636Z,17.26
2022-10-11T11:56:14.599Z,17.23
2022-10-11T12:06:21.573Z,16.97
2022-10-11T12:16:29.298Z,16.85
2022-10-11T12:26:40.172Z,16.94
2022-10-11T12:36:48.683Z,16.91
2022-10-11T12:46:56.609Z,16.91
2022-10-11T12:57:26.940Z,16.57
2022-10-11T13:07:30.054Z,16.57
2022-10-11T13:17:38.699Z,16.74
2022-10-11T13:27:42.590Z,16.78
2022-10-11T13:37:48.112Z,16.67
2022-10-11T13:47:53.828Z,16.76
2022-10-11T13:58:01.765Z,16.87
2022-10-11T14:08:40.731Z,16.84
2022-10-11T14:18:46.289Z,16.66
2022-10-11T14:28:57.992Z,16.57
2022-10-11T14:39:01.879Z,16.46
2022-10-11T14:49:14.857Z,16.45
2022-10-11T14:59:21.603Z,16.52
2022-10-11T15:09:24.995Z,16.53
2022-10-11T15:19:28.233Z,16.45
2022-10-11T15:29:31.033Z,16.37
2022-10-11T15:39:34.314Z,16.10
2022-10-11T15:49:37.254Z,16.03
2022-10-11T15:59:39.930Z,15.92
2022-10-11T16:09:42.702Z,15.87
2022-10-11T16:19:45.511Z,15.71
2022-10-11T16:29:48.002Z,15.40
2022-10-11T16:39:50.636Z,15.14
2022-10-11T16:49:53.491Z,14.93
2022-10-11T16:59:56.351Z,14.74
2022-10-11T17:10:01.312Z,14.65
2022-10-11T17:20:04.529Z,14.56
2022-10-11T17:30:07.861Z,14.45
2022-10-11T17:40:10.802Z,14.43
2022-10-11T17:50:13.404Z,14.35
2022-10-11T18:00:16.586Z,14.30
2022-10-11T18:10:19.207Z,14.25
2022-10-11T18:20:21.955Z,14.21
2022-10-11T18:30:24.783Z,14.16
2022-10-11T18:40:27.333Z,14.11
2022-10-11T18:50:35.193Z,14.04
2022-10-11T19:00:41.608Z,13.99
2022-10-11T19:10:45.205Z,13.88
2022-10-11T19:20:48.622Z,13.73
2022-10-11T19:30:51.170Z,13.64
2022-10-11T19:40:54.393Z,13.47
2022-10-11T19:51:18.307Z,13.21
2022-10-11T20:01:23.177Z,13.02
2022-10-11T20:11:26.948Z,12.98
2022-10-11T20:21:30.968Z,12.98
2022-10-11T20:31:35.520Z,12.99
2022-10-11T20:41:40.390Z,13.02
2022-10-11T20:51:43.111Z,12.98
2022-10-11T21:01:45.656Z,12.97
2022-10-11T21:11:48.274Z,12.99
2022-10-11T21:21:53.702Z,12.98
2022-10-11T21:31:56.403Z,12.98
2022-10-11T21:41:58.674Z,12.98
2022-10-11T21:52:01.576Z,12.92
2022-10-11T22:02:03.970Z,12.86
2022-10-11T22:12:06.997Z,12.74
2022-10-11T22:22:09.371Z,12.68
2022-10-11T22:32:11.800Z,12.68
2022-10-11T22:42:14.818Z,12.69
2022-10-11T22:52:17.092Z,12.74
2022-10-11T23:02:19.409Z,12.75
2022-10-11T23:12:21.697Z,12.71
2022-10-11T23:22:24.538Z,12.74
2022-10-11T23:32:26.864Z,12.69
2022-10-11T23:42:29.210Z,12.68
2022-10-11T23:52:31.491Z,12.65
